This is the latest recevied weather packets stored in our database for station/object DO3HUM-5. If no packets are shown the sender has not sent any weather packets the latest 10 day(s).
| Time | Temp. | Humidity | Pressure | Rain* | Wind** | Luminosity | Snow |
|---|---|---|---|---|---|---|---|
| 1777729543 | 27.22° C | 33% | 1025.9 hPa | 0 mm | - | - | - |
| 1777728933 | 26.67° C | 34% | 1025.9 hPa | 0 mm | - | - | - |
| 1777728330 | 27.22° C | 34% | 1026.2 hPa | 0 mm | - | - | - |
| 1777727724 | 27.22° C | 35% | 1026.4 hPa | 0 mm | - | - | - |
| 1777727119 | 26.67° C | 36% | 1026.5 hPa | 0 mm | - | - | - |
| 1777726571 | 26.67° C | 35% | 1026.7 hPa | 0 mm | - | - | - |
| 1777725970 | 26.11° C | 36% | 1027 hPa | 0 mm | - | - | - |
| 1777725359 | 26.11° C | 36% | 1027 hPa | 0 mm | - | - | - |
| 1777724756 | 26.11° C | 36% | 1027.2 hPa | 0 mm | - | - | - |
| 1777724146 | 26.11° C | 37% | 1027.4 hPa | 0 mm | - | - | - |
| 1777723543 | 25.56° C | 36% | 1027.6 hPa | 0 mm | - | - | - |
| 1777722934 | 25.56° C | 37% | 1027.7 hPa | 0 mm | - | - | - |
| 1777722330 | 25.56° C | 37% | 1028 hPa | 0 mm | - | - | - |
| 1777721721 | 25.56° C | 37% | 1028.1 hPa | 0 mm | - | - | - |
| 1777721172 | 25.56° C | 38% | 1028.1 hPa | 0 mm | - | - | - |
| 1777720568 | 24.44° C | 39% | 1028.2 hPa | 0 mm | - | - | - |
| 1777719961 | 23.89° C | 39% | 1028.4 hPa | 0 mm | - | - | - |
| 1777719356 | 23.33° C | 41% | 1028.5 hPa | 0 mm | - | - | - |
| 1777718747 | 16.11° C | 73% | 1028.6 hPa | 0 mm | - | - | - |
| 1777718145 | 14.44° C | 91% | 1028.7 hPa | 0 mm | - | - | - |
| 1777717534 | 15° C | 90% | 1029 hPa | 0 mm | - | - | - |
| 1777716930 | 24.44° C | 39% | 1029 hPa | 0 mm | - | - | - |
| 1777716322 | 23.33° C | 40% | 1029.2 hPa | 0 mm | - | - | - |
| 1777715717 | 24.44° C | 40% | 1029.2 hPa | 0 mm | - | - | - |
| 1777715170 | 24.44° C | 39% | 1029.3 hPa | 0 mm | - | - | - |
* Rain latest hour (hover to see other rain measurements)
** Current wind speed in m/s (hover to see current wind gust speed)